Claypool, Arizona
Current Conditions -  °F | °C
As of 7:47 PM on Wednesday 17 Dec 2014 (Local Time) from KIWA Reporting Station
Overcast Overcast  
Wind Chill: 52°   Ceiling: 6000
Heat Index: 52°   Visibility: 20mi
Dew Point: 48°   Wind: 0mph
Humidity: 88%   Direction: NA
Pressure: 30.12"   Gusts: NA
Location:  33.41°N, 110.84°W
Report Text: KIWA 180247Z 00000KT 20SM SCT040 BKN060 OVC100 11/09 A3012
Loading
Personal Weather Stations






























Interactive Weather Map New forecast layout! Learn more

10-Day Weather Forecast

Advertisements
Track Severe Weather on mobile